createdAt,value
2022-11-14T00:00:58.251Z,14.60
2022-11-14T00:02:20.169Z,14.65
2022-11-14T00:03:41.642Z,15.25
2022-11-14T00:05:04.636Z,15.23
2022-11-14T00:06:26.129Z,12.95
2022-11-14T00:07:48.049Z,13.93
2022-11-14T00:09:09.338Z,13.18
2022-11-14T00:10:30.906Z,12.95
2022-11-14T00:11:52.571Z,13.20
2022-11-14T00:13:15.351Z,12.57
2022-11-14T00:14:37.474Z,12.85
2022-11-14T00:15:58.854Z,12.95
2022-11-14T00:17:20.188Z,13.07
2022-11-14T00:18:41.914Z,12.55
2022-11-14T00:20:05.018Z,14.88
2022-11-14T00:21:26.288Z,14.73
2022-11-14T00:22:48.030Z,14.02
2022-11-14T00:24:09.590Z,14.35
2022-11-14T00:25:32.505Z,12.77
2022-11-14T00:26:54.082Z,13.75
2022-11-14T00:28:16.139Z,14.82
2022-11-14T00:29:38.731Z,14.02
2022-11-14T00:31:00.396Z,14.95
2022-11-14T00:32:22.685Z,13.57
2022-11-14T00:33:43.895Z,13.20
2022-11-14T00:35:06.331Z,14.43
2022-11-14T00:36:27.910Z,14.15
2022-11-14T00:37:50.064Z,14.40
2022-11-14T00:39:15.415Z,14.88
2022-11-14T00:40:36.984Z,15.38
2022-11-14T00:41:58.595Z,13.43
2022-11-14T00:43:20.320Z,13.65
2022-11-14T00:44:42.031Z,14.32
2022-11-14T00:46:03.593Z,14.40
2022-11-14T00:47:25.040Z,13.02
2022-11-14T00:48:46.655Z,14.38
2022-11-14T00:50:08.504Z,15.02
2022-11-14T00:51:30.197Z,16.23
2022-11-14T00:52:51.909Z,14.77
2022-11-14T00:54:13.632Z,14.82
2022-11-14T00:55:35.472Z,16.10
2022-11-14T00:56:57.093Z,14.10
2022-11-14T00:58:18.787Z,14.43
2022-11-14T00:59:40.276Z,14.85
2022-11-14T01:01:01.578Z,14.20
2022-11-14T01:02:23.468Z,12.50
2022-11-14T01:03:49.602Z,13.70
2022-11-14T01:05:10.969Z,13.40
2022-11-14T01:06:32.512Z,12.65
2022-11-14T01:07:54.750Z,11.93
2022-11-14T01:09:16.395Z,12.30
2022-11-14T01:10:43.578Z,11.55
2022-11-14T01:12:05.693Z,10.27
2022-11-14T01:13:32.243Z,11.30
2022-11-14T01:14:54.045Z,10.90
2022-11-14T01:16:15.448Z,11.30
2022-11-14T01:17:37.112Z,10.45
2022-11-14T01:18:58.785Z,11.45
2022-11-14T01:20:20.452Z,11.15
2022-11-14T01:21:41.902Z,10.05
2022-11-14T01:23:03.484Z,10.38
2022-11-14T01:24:24.589Z,9.60
2022-11-14T01:25:46.803Z,10.98
2022-11-14T01:27:08.480Z,10.65
2022-11-14T01:28:30.987Z,10.60
2022-11-14T01:29:53.056Z,11.73
2022-11-14T01:31:21.603Z,10.52
2022-11-14T01:32:42.984Z,10.52
2022-11-14T01:34:04.599Z,10.00
2022-11-14T01:35:26.508Z,9.65
2022-11-14T01:36:48.150Z,10.50
2022-11-14T01:38:14.742Z,9.82
2022-11-14T01:39:35.948Z,10.18
2022-11-14T01:40:57.235Z,9.63
2022-11-14T01:42:21.975Z,10.60
2022-11-14T01:43:46.024Z,10.57
2022-11-14T01:45:59.494Z,10.02
2022-11-14T01:47:33.357Z,9.57
2022-11-14T01:49:03.584Z,9.70
2022-11-14T01:50:26.443Z,10.85
2022-11-14T01:52:03.748Z,10.10
2022-11-14T01:53:26.546Z,9.75
2022-11-14T01:54:55.449Z,10.25
2022-11-14T01:56:40.728Z,10.18
2022-11-14T01:58:02.608Z,9.60
2022-11-14T01:59:33.076Z,9.27
2022-11-14T02:00:55.646Z,9.32
2022-11-14T02:02:21.749Z,9.20
2022-11-14T02:03:46.185Z,8.57
2022-11-14T02:05:13.012Z,8.52
2022-11-14T02:06:36.494Z,8.90
2022-11-14T02:07:58.643Z,8.05
2022-11-14T02:09:20.325Z,8.10
2022-11-14T02:10:42.213Z,8.13
2022-11-14T02:12:08.909Z,9.30
2022-11-14T02:13:30.602Z,8.60
2022-11-14T02:14:56.210Z,7.97
2022-11-14T02:16:17.508Z,7.60
2022-11-14T02:17:40.321Z,8.77
2022-11-14T02:19:01.775Z,8.13
2022-11-14T02:20:32.592Z,7.53
2022-11-14T02:21:54.311Z,7.43
2022-11-14T02:23:25.037Z,8.30
2022-11-14T02:24:46.881Z,8.70
2022-11-14T02:26:08.271Z,8.65
2022-11-14T02:27:33.029Z,7.20
2022-11-14T02:28:56.461Z,7.82
2022-11-14T02:30:23.298Z,8.25
2022-11-14T02:31:44.940Z,8.15
2022-11-14T02:33:11.209Z,7.82
2022-11-14T02:34:33.837Z,8.88
2022-11-14T02:35:55.615Z,8.80
2022-11-14T02:37:16.892Z,8.82
2022-11-14T02:38:38.167Z,7.75
2022-11-14T02:39:59.710Z,7.22
2022-11-14T02:41:21.526Z,8.40
2022-11-14T02:42:43.286Z,9.25
2022-11-14T02:44:05.087Z,8.43
2022-11-14T02:45:27.012Z,8.30
2022-11-14T02:46:48.904Z,9.15
2022-11-14T02:48:10.663Z,8.57
2022-11-14T02:49:32.523Z,8.25
2022-11-14T02:50:53.907Z,8.82
2022-11-14T02:52:15.332Z,8.30
2022-11-14T02:53:36.755Z,7.95
2022-11-14T02:54:58.521Z,9.05
2022-11-14T02:56:20.273Z,8.60
2022-11-14T02:57:41.777Z,9.35
2022-11-14T02:59:03.519Z,9.27
2022-11-14T03:00:25.077Z,8.25
2022-11-14T03:01:46.758Z,8.25
2022-11-14T03:03:08.568Z,9.25
2022-11-14T03:04:30.104Z,9.90
2022-11-14T03:05:53.491Z,8.65
2022-11-14T03:07:14.984Z,8.35
2022-11-14T03:08:36.401Z,9.63
2022-11-14T03:09:58.093Z,9.60
2022-11-14T03:11:19.491Z,9.20
2022-11-14T03:12:41.229Z,8.88
2022-11-14T03:14:02.767Z,10.68
2022-11-14T03:15:25.025Z,8.35
2022-11-14T03:16:46.395Z,9.57
2022-11-14T03:18:07.786Z,10.23
2022-11-14T03:19:29.314Z,9.82
2022-11-14T03:20:50.582Z,10.73
2022-11-14T03:22:12.256Z,10.13
2022-11-14T03:23:34.101Z,9.52
2022-11-14T03:24:55.934Z,10.05
2022-11-14T03:26:17.571Z,10.00
2022-11-14T03:27:39.092Z,9.63
2022-11-14T03:29:00.549Z,10.95
2022-11-14T03:30:22.279Z,10.13
2022-11-14T03:31:43.736Z,10.07
2022-11-14T03:33:05.294Z,10.10
2022-11-14T03:34:26.997Z,11.93
2022-11-14T03:35:51.406Z,10.73
2022-11-14T03:37:12.863Z,10.18
2022-11-14T03:38:35.921Z,9.35
2022-11-14T03:39:57.736Z,10.20
2022-11-14T03:41:19.229Z,10.70
2022-11-14T03:42:40.704Z,9.98
2022-11-14T03:44:02.197Z,9.82
2022-11-14T03:45:23.605Z,12.05
2022-11-14T03:46:45.523Z,11.32
2022-11-14T03:48:07.438Z,12.00
2022-11-14T03:49:29.085Z,10.48
2022-11-14T03:50:50.471Z,10.25
2022-11-14T03:52:12.708Z,10.85
2022-11-14T03:53:34.150Z,10.77
2022-11-14T03:54:55.720Z,10.27
2022-11-14T03:56:17.059Z,10.75
2022-11-14T03:57:38.766Z,10.73
2022-11-14T03:59:00.200Z,10.80
2022-11-14T04:00:21.721Z,10.75
2022-11-14T04:01:43.098Z,10.57
2022-11-14T04:03:05.143Z,12.18
2022-11-14T04:04:26.646Z,11.15
2022-11-14T04:05:48.988Z,12.40
2022-11-14T04:07:11.210Z,11.00
2022-11-14T04:08:33.523Z,12.45
2022-11-14T04:09:55.167Z,12.02
2022-11-14T04:11:16.438Z,11.32
2022-11-14T04:12:37.952Z,11.23
2022-11-14T04:13:59.704Z,10.65
2022-11-14T04:15:21.236Z,11.13
2022-11-14T04:16:42.597Z,11.85
2022-11-14T04:18:04.355Z,11.15
2022-11-14T04:19:25.749Z,11.45
2022-11-14T04:20:47.063Z,10.57
2022-11-14T04:22:09.023Z,10.70
2022-11-14T04:23:30.324Z,11.25
2022-11-14T04:24:51.770Z,10.27
2022-11-14T04:26:13.029Z,9.30
2022-11-14T04:27:35.138Z,11.63
2022-11-14T04:28:56.705Z,10.10
2022-11-14T04:30:18.296Z,10.13
2022-11-14T04:31:39.567Z,10.48
2022-11-14T04:33:01.241Z,9.93
2022-11-14T04:34:22.692Z,10.27
2022-11-14T04:35:44.507Z,9.48
2022-11-14T04:37:11.453Z,9.23
2022-11-14T04:38:33.440Z,9.40
2022-11-14T04:39:58.809Z,9.60
2022-11-14T04:41:20.351Z,9.77
2022-11-14T04:42:41.841Z,9.23
2022-11-14T04:44:03.563Z,8.20
2022-11-14T04:45:25.275Z,8.93
2022-11-14T04:46:46.895Z,8.30
2022-11-14T04:48:08.322Z,9.32
2022-11-14T04:49:30.025Z,8.48
2022-11-14T04:50:51.959Z,7.70
2022-11-14T04:52:13.154Z,8.45
2022-11-14T04:53:34.648Z,7.90
2022-11-14T04:54:56.248Z,8.15
2022-11-14T04:56:18.268Z,8.43
2022-11-14T04:57:39.646Z,7.90
2022-11-14T04:59:01.016Z,8.77
2022-11-14T05:00:23.267Z,7.75
2022-11-14T05:01:44.732Z,8.20
2022-11-14T05:03:06.466Z,7.82
2022-11-14T05:04:28.609Z,7.65
2022-11-14T05:05:50.676Z,7.47
2022-11-14T05:07:12.305Z,8.23
2022-11-14T05:08:34.560Z,7.80
2022-11-14T05:09:56.172Z,8.65
2022-11-14T05:11:23.193Z,6.80
2022-11-14T05:12:48.203Z,7.88
2022-11-14T05:14:09.890Z,7.88
2022-11-14T05:15:31.738Z,7.68
2022-11-14T05:16:53.562Z,6.60
2022-11-14T05:18:14.867Z,7.38
2022-11-14T05:19:36.234Z,7.80
2022-11-14T05:21:01.464Z,7.93
2022-11-14T05:22:23.365Z,7.18
2022-11-14T05:23:44.943Z,6.40
2022-11-14T05:25:07.725Z,7.53
2022-11-14T05:26:29.178Z,7.00
2022-11-14T05:27:50.790Z,7.38
2022-11-14T05:29:12.218Z,8.05
2022-11-14T05:30:33.692Z,7.45
2022-11-14T05:31:55.291Z,7.90
2022-11-14T05:33:17.068Z,7.72
2022-11-14T05:34:38.740Z,7.53
2022-11-14T05:36:09.396Z,7.00
2022-11-14T05:37:30.968Z,6.85
2022-11-14T05:38:52.283Z,6.88
2022-11-14T05:40:13.967Z,6.88
2022-11-14T05:41:35.506Z,6.03
2022-11-14T05:42:57.021Z,6.32
2022-11-14T05:44:18.692Z,6.07
2022-11-14T05:45:40.013Z,6.68
2022-11-14T05:47:01.722Z,6.28
2022-11-14T05:48:23.657Z,6.32
2022-11-14T05:49:44.963Z,6.60
2022-11-14T05:51:08.406Z,7.43
2022-11-14T05:52:30.554Z,7.07
2022-11-14T05:53:52.325Z,6.05
2022-11-14T05:55:13.807Z,6.03
2022-11-14T05:56:35.241Z,6.55
2022-11-14T05:57:59.938Z,5.63
2022-11-14T05:59:21.697Z,5.10
2022-11-14T06:00:50.792Z,5.13
2022-11-14T06:02:15.186Z,4.78
2022-11-14T06:03:40.311Z,5.20
2022-11-14T06:05:02.062Z,4.95
2022-11-14T06:06:23.414Z,5.15
2022-11-14T06:07:44.859Z,5.00
2022-11-14T06:09:06.206Z,5.00
2022-11-14T06:10:28.772Z,4.72
2022-11-14T06:11:50.571Z,5.00
2022-11-14T06:13:11.944Z,4.70
2022-11-14T06:14:33.585Z,4.63
2022-11-14T06:16:00.877Z,4.55
2022-11-14T06:17:22.631Z,4.93
2022-11-14T06:18:44.502Z,4.88
2022-11-14T06:20:07.062Z,5.50
2022-11-14T06:21:28.784Z,4.95
2022-11-14T06:22:53.737Z,4.32
2022-11-14T06:24:15.492Z,4.15
2022-11-14T06:25:36.879Z,4.47
2022-11-14T06:26:58.735Z,5.15
2022-11-14T06:28:20.379Z,5.10
2022-11-14T06:29:42.279Z,4.07
2022-11-14T06:31:05.224Z,4.40
2022-11-14T06:32:26.857Z,4.15
2022-11-14T06:33:49.340Z,4.00
2022-11-14T06:35:10.961Z,4.68
2022-11-14T06:36:32.537Z,4.53
2022-11-14T06:37:54.322Z,4.25
2022-11-14T06:39:15.674Z,4.30
2022-11-14T06:40:37.407Z,4.15
2022-11-14T06:41:58.994Z,4.60
2022-11-14T06:43:20.988Z,4.40
2022-11-14T06:44:42.582Z,4.07
2022-11-14T06:46:06.291Z,5.05
2022-11-14T06:47:27.780Z,4.18
2022-11-14T06:48:51.463Z,4.72
2022-11-14T06:50:13.308Z,4.32
2022-11-14T06:51:34.796Z,4.32
2022-11-14T06:52:58.762Z,4.72
2022-11-14T06:54:20.605Z,4.25
2022-11-14T06:55:42.073Z,4.88
2022-11-14T06:57:03.677Z,4.25
2022-11-14T06:58:31.510Z,4.47
2022-11-14T06:59:53.631Z,5.18
2022-11-14T07:01:22.241Z,4.10
2022-11-14T07:02:47.372Z,4.40
2022-11-14T07:04:12.115Z,5.20
2022-11-14T07:05:33.591Z,4.63
2022-11-14T07:06:55.489Z,4.68
2022-11-14T07:08:20.786Z,4.55
2022-11-14T07:09:42.761Z,4.53
2022-11-14T07:11:07.972Z,4.57
2022-11-14T07:12:31.015Z,4.65
2022-11-14T07:14:00.898Z,5.20
2022-11-14T07:15:22.549Z,4.68
2022-11-14T07:16:43.961Z,4.75
2022-11-14T07:18:05.987Z,4.47
2022-11-14T07:19:27.746Z,4.82
2022-11-14T07:20:49.597Z,5.15
2022-11-14T07:22:11.238Z,5.35
2022-11-14T07:23:34.444Z,5.85
2022-11-14T07:24:55.894Z,6.45
2022-11-14T07:26:17.230Z,6.22
2022-11-14T07:27:38.797Z,5.43
2022-11-14T07:29:02.444Z,5.00
2022-11-14T07:30:24.545Z,5.07
2022-11-14T07:31:45.989Z,5.47
2022-11-14T07:33:07.537Z,4.38
2022-11-14T07:34:28.929Z,4.95
2022-11-14T07:35:51.861Z,5.47
2022-11-14T07:37:13.196Z,5.20
2022-11-14T07:38:36.289Z,5.43
2022-11-14T07:39:57.866Z,4.45
2022-11-14T07:41:19.851Z,4.45
2022-11-14T07:42:41.572Z,4.85
2022-11-14T07:44:02.822Z,5.40
2022-11-14T07:45:24.064Z,4.43
2022-11-14T07:46:45.706Z,4.80
2022-11-14T07:48:07.065Z,4.40
2022-11-14T07:49:28.459Z,4.68
2022-11-14T07:50:49.834Z,4.00
2022-11-14T07:52:11.118Z,4.90
2022-11-14T07:53:32.948Z,5.10
2022-11-14T07:54:54.212Z,5.35
2022-11-14T07:56:17.312Z,5.47
2022-11-14T07:57:42.827Z,4.97
2022-11-14T07:59:07.254Z,4.93
2022-11-14T08:00:29.048Z,5.40
2022-11-14T08:01:50.619Z,4.47
2022-11-14T08:03:12.369Z,4.80
2022-11-14T08:04:33.794Z,5.18
2022-11-14T08:06:07.812Z,4.65
2022-11-14T08:07:29.169Z,4.90
2022-11-14T08:08:50.975Z,4.93
2022-11-14T08:10:14.296Z,4.50
2022-11-14T08:11:50.794Z,4.53
2022-11-14T08:14:54.295Z,5.63
2022-11-14T08:16:15.995Z,6.80
2022-11-14T08:17:38.060Z,5.90
2022-11-14T08:18:59.738Z,5.55
2022-11-14T08:20:21.064Z,4.75
2022-11-14T08:21:44.144Z,5.35
2022-11-14T08:23:09.898Z,4.75
2022-11-14T08:24:31.153Z,4.65
2022-11-14T08:25:52.835Z,5.45
2022-11-14T08:27:14.439Z,5.10
2022-11-14T08:28:36.232Z,4.80
2022-11-14T08:29:57.836Z,5.28
2022-11-14T08:31:19.146Z,4.88
2022-11-14T08:32:40.638Z,4.35
2022-11-14T08:34:02.568Z,5.75
2022-11-14T08:35:24.481Z,5.25
2022-11-14T08:36:46.235Z,4.20
2022-11-14T08:38:07.724Z,4.72
2022-11-14T08:39:29.712Z,5.40
2022-11-14T08:40:51.203Z,4.57
2022-11-14T08:42:12.818Z,4.63
2022-11-14T08:43:34.533Z,4.72
2022-11-14T08:44:56.020Z,4.47
2022-11-14T08:46:17.508Z,4.97
2022-11-14T08:47:38.874Z,4.32
2022-11-14T08:49:00.079Z,3.92
2022-11-14T08:50:21.581Z,5.00
2022-11-14T08:51:43.239Z,4.15
2022-11-14T08:53:04.765Z,4.55
2022-11-14T08:54:26.245Z,4.22
2022-11-14T08:55:48.823Z,4.40
2022-11-14T08:57:12.000Z,4.43
2022-11-14T08:58:33.979Z,4.18
2022-11-14T08:59:55.946Z,4.13
2022-11-14T09:01:17.484Z,4.22
2022-11-14T09:02:39.483Z,3.83
2022-11-14T09:04:01.671Z,3.65
2022-11-14T09:05:23.361Z,3.75
2022-11-14T09:06:46.491Z,4.00
2022-11-14T09:08:08.690Z,4.43
2022-11-14T09:09:30.415Z,3.92
2022-11-14T09:10:52.110Z,3.55
2022-11-14T09:12:14.650Z,3.83
2022-11-14T09:13:36.194Z,3.75
2022-11-14T09:14:57.791Z,4.38
2022-11-14T09:16:19.515Z,3.60
2022-11-14T09:17:41.079Z,3.92
2022-11-14T09:19:02.463Z,3.08
2022-11-14T09:20:30.264Z,4.40
2022-11-14T09:21:54.695Z,4.47
2022-11-14T09:23:16.049Z,4.20
2022-11-14T09:24:37.660Z,4.38
2022-11-14T09:26:03.823Z,3.50
2022-11-14T09:27:27.824Z,4.35
2022-11-14T09:28:49.881Z,3.92
2022-11-14T09:30:12.814Z,4.10
2022-11-14T09:31:34.127Z,3.58
2022-11-14T09:33:02.829Z,4.20
2022-11-14T09:34:27.250Z,4.80
2022-11-14T09:35:48.598Z,3.90
2022-11-14T09:37:10.291Z,4.20
2022-11-14T09:38:37.975Z,3.63
2022-11-14T09:39:59.920Z,4.03
2022-11-14T09:41:54.803Z,3.58
2022-11-14T09:43:49.388Z,3.45
2022-11-14T09:45:17.271Z,3.42
2022-11-14T09:46:46.283Z,3.75
2022-11-14T09:48:16.360Z,3.92
2022-11-14T09:49:44.712Z,3.83
2022-11-14T09:51:47.484Z,4.15
2022-11-14T09:53:47.710Z,3.47
2022-11-14T09:55:17.426Z,3.30
2022-11-14T09:56:38.952Z,3.10
2022-11-14T09:58:03.530Z,3.92
2022-11-14T09:59:25.232Z,3.05
2022-11-14T10:01:09.270Z,3.20
2022-11-14T10:03:19.070Z,3.08
2022-11-14T10:05:22.120Z,3.22
2022-11-14T10:07:03.059Z,3.25
2022-11-14T10:08:41.863Z,3.42
2022-11-14T10:10:27.327Z,2.85
2022-11-14T10:12:14.338Z,2.88
2022-11-14T10:14:02.644Z,2.97
2022-11-14T10:15:41.984Z,2.42
2022-11-14T10:17:20.899Z,2.83
2022-11-14T10:19:21.792Z,3.42
2022-11-14T10:21:19.268Z,3.55
2022-11-14T10:23:23.271Z,3.85
2022-11-14T10:25:31.274Z,3.42
2022-11-14T10:27:22.506Z,3.55
2022-11-14T10:31:02.912Z,3.58
2022-11-14T10:33:03.682Z,4.03
2022-11-14T10:34:30.917Z,4.20
2022-11-14T10:36:07.687Z,4.47
2022-11-14T10:37:56.147Z,3.67
2022-11-14T10:39:42.364Z,4.82
2022-11-14T10:41:07.132Z,3.75
2022-11-14T10:42:41.628Z,4.20
2022-11-14T10:44:03.873Z,4.10
2022-11-14T10:45:52.501Z,4.07
2022-11-14T10:47:18.899Z,3.88
2022-11-14T10:48:47.408Z,3.95
2022-11-14T10:50:50.060Z,4.57
2022-11-14T10:52:20.635Z,3.92
2022-11-14T10:54:04.426Z,4.10
2022-11-14T10:55:57.295Z,4.63
2022-11-14T10:57:22.369Z,4.00
2022-11-14T10:58:49.039Z,3.85
2022-11-14T11:00:18.397Z,4.00
2022-11-14T11:01:55.364Z,4.10
2022-11-14T11:03:16.731Z,3.80
2022-11-14T11:04:44.470Z,4.53
2022-11-14T11:06:06.301Z,4.38
2022-11-14T11:07:45.924Z,3.78
2022-11-14T11:09:31.569Z,4.30
2022-11-14T11:11:18.076Z,4.25
2022-11-14T11:12:51.484Z,4.40
2022-11-14T11:14:19.574Z,4.65
2022-11-14T11:15:42.852Z,4.70
2022-11-14T11:17:21.147Z,4.93
2022-11-14T11:18:42.572Z,4.47
2022-11-14T11:20:38.726Z,4.35
2022-11-14T11:22:00.171Z,4.72
2022-11-14T11:23:28.052Z,4.00
2022-11-14T11:24:49.772Z,5.05
2022-11-14T11:26:28.636Z,4.70
2022-11-14T11:28:05.515Z,4.65
2022-11-14T11:29:26.917Z,5.45
2022-11-14T11:31:00.594Z,3.63
2022-11-14T11:32:26.715Z,4.15
2022-11-14T11:33:48.162Z,4.28
2022-11-14T11:35:17.812Z,4.05
2022-11-14T11:36:50.722Z,3.88
2022-11-14T11:38:15.727Z,4.25
2022-11-14T11:40:01.282Z,3.90
2022-11-14T11:43:57.214Z,3.92
2022-11-14T11:45:20.221Z,4.53
2022-11-14T11:47:14.679Z,4.68
2022-11-14T11:48:40.426Z,3.90
2022-11-14T11:50:03.046Z,4.03
2022-11-14T11:51:27.079Z,4.20
2022-11-14T11:52:57.775Z,3.90
2022-11-14T11:54:24.080Z,4.22
2022-11-14T11:56:09.811Z,3.45
2022-11-14T11:57:43.031Z,3.58
2022-11-14T11:59:38.992Z,4.40
2022-11-14T12:01:00.544Z,4.22
2022-11-14T12:02:26.954Z,4.35
2022-11-14T12:03:53.483Z,4.32
2022-11-14T12:05:31.342Z,3.78
2022-11-14T12:07:12.035Z,3.97
2022-11-14T12:09:02.384Z,3.70
2022-11-14T12:10:30.259Z,3.88
2022-11-14T12:12:04.903Z,3.22
2022-11-14T12:13:48.441Z,3.55
2022-11-14T12:15:24.325Z,4.10
2022-11-14T12:17:26.559Z,4.00
2022-11-14T12:19:24.273Z,3.38
2022-11-14T12:20:48.549Z,4.03
2022-11-14T12:22:35.663Z,3.80
2022-11-14T12:24:24.950Z,3.50
2022-11-14T12:26:23.765Z,4.43
2022-11-14T12:28:09.697Z,4.40
2022-11-14T12:30:01.708Z,4.60
2022-11-14T12:31:24.000Z,5.38
2022-11-14T12:33:34.678Z,7.18
2022-11-14T12:34:58.936Z,5.70
2022-11-14T12:36:28.992Z,6.63
2022-11-14T12:37:56.000Z,5.70
2022-11-14T12:39:30.480Z,4.88
2022-11-14T12:40:57.463Z,5.78
2022-11-14T12:42:22.040Z,6.38
2022-11-14T12:43:44.120Z,5.90
2022-11-14T12:45:40.465Z,5.70
2022-11-14T12:47:07.568Z,6.20
2022-11-14T12:48:35.546Z,5.53
2022-11-14T12:50:00.849Z,6.03
2022-11-14T12:51:25.518Z,5.50
2022-11-14T12:52:49.758Z,6.25
2022-11-14T12:54:50.137Z,5.93
2022-11-14T12:56:30.888Z,6.25
2022-11-14T12:58:09.212Z,5.90
2022-11-14T12:59:54.115Z,5.45
2022-11-14T13:01:15.403Z,4.90
2022-11-14T13:02:59.650Z,4.60
2022-11-14T13:05:09.395Z,4.60
2022-11-14T13:06:57.373Z,4.38
2022-11-14T13:08:34.592Z,4.63
2022-11-14T13:10:32.044Z,4.05
2022-11-14T13:12:12.226Z,4.00
2022-11-14T13:14:20.127Z,3.60
2022-11-14T13:16:13.442Z,3.97
2022-11-14T13:17:53.349Z,4.20
2022-11-14T13:19:40.380Z,4.00
2022-11-14T13:21:38.646Z,3.70
2022-11-14T13:23:04.674Z,3.90
2022-11-14T13:24:26.392Z,3.80
2022-11-14T13:25:47.821Z,4.22
2022-11-14T13:27:52.114Z,3.33
2022-11-14T13:29:40.636Z,3.88
2022-11-14T13:31:06.177Z,3.80
2022-11-14T13:32:42.647Z,3.58
2022-11-14T13:34:36.240Z,3.58
2022-11-14T13:36:05.004Z,3.78
2022-11-14T13:38:04.091Z,3.75
2022-11-14T13:40:09.644Z,4.38
2022-11-14T13:42:05.300Z,4.32
2022-11-14T13:43:52.795Z,4.75
2022-11-14T13:45:20.176Z,5.53
2022-11-14T13:47:18.783Z,6.25
2022-11-14T13:49:15.406Z,6.30
2022-11-14T13:50:38.334Z,8.82
2022-11-14T13:52:00.351Z,8.55
2022-11-14T13:53:29.888Z,7.78
2022-11-14T13:54:52.286Z,8.70
2022-11-14T13:56:31.206Z,9.27
2022-11-14T13:58:36.110Z,10.13
2022-11-14T14:00:07.362Z,9.43
2022-11-14T14:01:49.939Z,8.98
2022-11-14T14:03:54.840Z,9.52
2022-11-14T14:05:55.591Z,9.52
2022-11-14T14:07:45.855Z,9.27
2022-11-14T14:09:27.484Z,9.75
2022-11-14T14:11:25.060Z,9.77
2022-11-14T14:13:22.475Z,8.77
2022-11-14T14:15:09.659Z,9.30
2022-11-14T14:16:57.713Z,7.32
2022-11-14T14:18:40.035Z,9.13
2022-11-14T14:20:45.739Z,8.23
2022-11-14T14:22:35.025Z,9.10
2022-11-14T14:24:03.678Z,9.50
2022-11-14T14:25:54.159Z,10.20
2022-11-14T14:27:40.049Z,10.20
2022-11-14T14:29:32.564Z,9.23
2022-11-14T14:31:07.803Z,10.85
2022-11-14T14:32:29.932Z,11.05
2022-11-14T14:33:52.896Z,12.65
2022-11-14T14:35:27.439Z,10.90
2022-11-14T14:36:53.654Z,11.30
2022-11-14T14:38:26.018Z,11.68
2022-11-14T14:40:02.875Z,10.45
2022-11-14T14:41:26.222Z,11.60
2022-11-14T14:42:49.260Z,11.13
2022-11-14T14:44:26.828Z,12.38
2022-11-14T14:45:53.337Z,11.50
2022-11-14T14:47:32.463Z,11.02
2022-11-14T14:48:54.550Z,11.60
2022-11-14T14:50:26.705Z,11.65
2022-11-14T14:51:48.314Z,12.40
2022-11-14T14:53:22.919Z,11.93
2022-11-14T14:54:55.856Z,11.23
2022-11-14T14:56:27.122Z,11.48
2022-11-14T14:57:49.082Z,12.63
2022-11-14T14:59:25.181Z,11.50
2022-11-14T15:01:14.845Z,12.00
2022-11-14T15:02:36.837Z,12.82
2022-11-14T15:04:14.396Z,12.77
2022-11-14T15:05:36.233Z,12.93
2022-11-14T15:06:58.394Z,11.65
2022-11-14T15:08:20.578Z,13.07
2022-11-14T15:10:02.583Z,12.90
2022-11-14T15:11:27.337Z,11.63
2022-11-14T15:12:53.732Z,13.05
2022-11-14T15:14:32.043Z,13.07
2022-11-14T15:15:54.247Z,13.00
2022-11-14T15:17:16.503Z,13.25
2022-11-14T15:18:38.367Z,14.57
2022-11-14T15:20:00.386Z,14.50
2022-11-14T15:21:24.611Z,13.18
2022-11-14T15:23:11.160Z,13.77
2022-11-14T15:24:33.038Z,13.82
2022-11-14T15:26:06.245Z,16.08
2022-11-14T15:27:27.922Z,15.13
2022-11-14T15:28:49.601Z,14.93
2022-11-14T15:30:24.074Z,15.77
2022-11-14T15:31:53.607Z,16.10
2022-11-14T15:33:33.967Z,16.63
2022-11-14T15:35:25.655Z,14.15
2022-11-14T15:37:26.276Z,16.13
2022-11-14T15:39:28.000Z,14.77
2022-11-14T15:42:46.014Z,14.63
2022-11-14T15:44:34.229Z,16.60
2022-11-14T15:45:56.532Z,15.93
2022-11-14T15:47:36.239Z,16.33
2022-11-14T15:48:58.357Z,15.27
2022-11-14T15:50:34.867Z,14.65
2022-11-14T15:52:02.795Z,14.95
2022-11-14T15:53:28.068Z,15.05
2022-11-14T15:54:50.129Z,14.82
2022-11-14T15:56:15.926Z,14.50
2022-11-14T15:57:38.319Z,13.82
2022-11-14T15:59:00.036Z,14.00
2022-11-14T16:00:21.980Z,15.07
2022-11-14T16:01:46.883Z,13.07
2022-11-14T16:03:12.531Z,14.25
2022-11-14T16:04:37.933Z,12.00
2022-11-14T16:06:01.661Z,13.50
2022-11-14T16:07:23.595Z,13.15
2022-11-14T16:08:45.284Z,14.93
2022-11-14T16:10:21.557Z,13.82
2022-11-14T16:11:44.143Z,11.75
2022-11-14T16:13:06.288Z,13.27
2022-11-14T16:14:27.752Z,14.02
2022-11-14T16:15:49.158Z,13.43
2022-11-14T16:17:18.630Z,12.30
2022-11-14T16:18:40.138Z,10.68
2022-11-14T16:20:04.859Z,10.93
2022-11-14T16:21:26.435Z,12.70
2022-11-14T16:22:50.205Z,12.23
2022-11-14T16:24:17.191Z,12.10
2022-11-14T16:25:38.972Z,12.68
2022-11-14T16:27:00.685Z,10.90
2022-11-14T16:28:22.697Z,11.32
2022-11-14T16:29:44.316Z,10.25
2022-11-14T16:31:14.948Z,11.00
2022-11-14T16:32:36.545Z,11.05
2022-11-14T16:33:58.100Z,11.23
2022-11-14T16:35:25.975Z,10.00
2022-11-14T16:36:48.762Z,11.18
2022-11-14T16:38:14.068Z,9.25
2022-11-14T16:39:38.029Z,10.48
2022-11-14T16:41:00.475Z,9.10
2022-11-14T16:42:22.173Z,10.48
2022-11-14T16:43:43.746Z,9.70
2022-11-14T16:45:06.207Z,9.80
2022-11-14T16:46:27.787Z,10.88
2022-11-14T16:47:50.317Z,9.63
2022-11-14T16:49:17.533Z,9.98
2022-11-14T16:50:39.435Z,9.57
2022-11-14T16:52:05.579Z,8.50
2022-11-14T16:53:27.084Z,8.82
2022-11-14T16:54:49.049Z,9.93
2022-11-14T16:56:13.669Z,8.82
2022-11-14T16:57:37.203Z,9.85
2022-11-14T16:58:58.888Z,9.95
2022-11-14T17:00:20.573Z,9.70
2022-11-14T17:01:42.722Z,10.50
2022-11-14T17:03:04.497Z,9.90
2022-11-14T17:04:26.122Z,10.55
2022-11-14T17:05:52.472Z,10.30
2022-11-14T17:07:15.867Z,10.13
2022-11-14T17:08:40.598Z,9.20
2022-11-14T17:10:02.465Z,10.48
2022-11-14T17:11:25.631Z,10.13
2022-11-14T17:12:47.226Z,9.93
2022-11-14T17:14:08.738Z,9.20
2022-11-14T17:15:31.835Z,9.93
2022-11-14T17:16:53.613Z,9.85
2022-11-14T17:18:14.953Z,11.48
2022-11-14T17:19:36.466Z,10.82
2022-11-14T17:20:57.915Z,9.25
2022-11-14T17:22:22.488Z,11.25
2022-11-14T17:23:43.978Z,10.98
2022-11-14T17:25:05.832Z,10.88
2022-11-14T17:26:28.313Z,10.60
2022-11-14T17:27:50.055Z,8.73
2022-11-14T17:29:12.891Z,9.70
2022-11-14T17:30:34.398Z,10.38
2022-11-14T17:31:56.562Z,9.48
2022-11-14T17:33:18.512Z,9.10
2022-11-14T17:34:39.887Z,9.20
2022-11-14T17:36:10.249Z,9.00
2022-11-14T17:37:32.021Z,8.95
2022-11-14T17:38:53.524Z,9.10
2022-11-14T17:40:15.821Z,9.40
2022-11-14T17:41:38.652Z,8.60
2022-11-14T17:43:00.194Z,8.93
2022-11-14T17:44:21.795Z,10.45
2022-11-14T17:45:53.247Z,9.73
2022-11-14T17:47:14.595Z,10.60
2022-11-14T17:48:36.161Z,10.30
2022-11-14T17:49:57.923Z,9.50
2022-11-14T17:51:19.545Z,9.63
2022-11-14T17:52:41.778Z,10.65
2022-11-14T17:54:03.554Z,9.93
2022-11-14T17:55:25.081Z,9.50
2022-11-14T17:56:50.890Z,10.20
2022-11-14T17:58:15.158Z,9.40
2022-11-14T17:59:38.906Z,9.25
2022-11-14T18:01:00.677Z,9.48
2022-11-14T18:02:22.222Z,10.10
2022-11-14T18:03:44.533Z,9.90
2022-11-14T18:05:06.786Z,9.10
2022-11-14T18:06:28.350Z,10.13
2022-11-14T18:07:50.674Z,9.23
2022-11-14T18:09:14.472Z,10.43
2022-11-14T18:10:36.337Z,10.85
2022-11-14T18:11:57.806Z,11.02
2022-11-14T18:13:19.489Z,10.63
2022-11-14T18:14:41.154Z,10.63
2022-11-14T18:16:06.009Z,10.95
2022-11-14T18:17:28.007Z,12.40
2022-11-14T18:18:51.416Z,11.18
2022-11-14T18:20:13.073Z,9.85
2022-11-14T18:21:34.616Z,11.95
2022-11-14T18:22:56.662Z,11.13
2022-11-14T18:24:18.429Z,10.75
2022-11-14T18:25:40.129Z,10.60
2022-11-14T18:27:02.076Z,10.30
2022-11-14T18:28:23.507Z,10.50
2022-11-14T18:29:45.441Z,10.32
2022-11-14T18:31:10.775Z,10.18
2022-11-14T18:32:33.084Z,10.10
2022-11-14T18:33:55.108Z,10.50
2022-11-14T18:35:16.654Z,10.13
2022-11-14T18:36:38.169Z,9.60
2022-11-14T18:38:00.288Z,9.00
2022-11-14T18:39:22.208Z,9.55
2022-11-14T18:40:44.537Z,9.90
2022-11-14T18:42:06.208Z,10.05
2022-11-14T18:43:29.643Z,10.35
2022-11-14T18:44:51.955Z,9.38
2022-11-14T18:46:18.940Z,9.60
2022-11-14T18:47:40.784Z,10.10
2022-11-14T18:49:02.620Z,9.57
2022-11-14T18:50:24.144Z,9.40
2022-11-14T18:51:46.133Z,9.68
2022-11-14T18:53:08.803Z,9.07
2022-11-14T18:54:30.739Z,11.23
2022-11-14T18:55:53.274Z,9.27
2022-11-14T18:57:14.980Z,10.05
2022-11-14T18:58:39.819Z,10.75
2022-11-14T19:00:01.665Z,10.57
2022-11-14T19:01:29.339Z,10.27
2022-11-14T19:02:51.822Z,10.13
2022-11-14T19:04:17.140Z,9.25
2022-11-14T19:05:38.611Z,10.30
2022-11-14T19:07:00.655Z,10.43
2022-11-14T19:08:22.574Z,11.15
2022-11-14T19:09:44.649Z,10.70
2022-11-14T19:11:31.228Z,9.75
2022-11-14T19:12:52.876Z,11.85
2022-11-14T19:14:14.707Z,10.82